createdAt,value
2023-02-24T00:03:00.348Z,9.35
2023-02-24T00:08:06.324Z,9.10
2023-02-24T00:18:16.886Z,8.45
2023-02-24T00:23:23.825Z,8.40
2023-02-24T00:28:29.723Z,8.68
2023-02-24T00:38:46.100Z,8.70
2023-02-24T00:43:51.755Z,8.27
2023-02-24T00:48:56.253Z,8.82
2023-02-24T00:54:02.773Z,8.32
2023-02-24T00:59:07.109Z,8.13
2023-02-24T01:04:12.290Z,8.13
2023-02-24T01:09:20.323Z,16.37
2023-02-24T01:14:27.243Z,9.02
2023-02-24T01:19:34.185Z,9.73
2023-02-24T01:24:42.435Z,9.35
2023-02-24T01:29:47.102Z,8.32
2023-02-24T01:34:53.581Z,8.10
2023-02-24T01:39:59.519Z,8.63
2023-02-24T01:45:12.745Z,9.45
2023-02-24T01:50:21.841Z,10.10
2023-02-24T01:55:32.204Z,11.57
2023-02-24T02:00:45.376Z,8.82
2023-02-24T02:05:49.841Z,8.65
2023-02-24T02:10:59.761Z,9.30
2023-02-24T02:16:30.896Z,8.10
2023-02-24T02:22:02.466Z,11.60
2023-02-24T02:27:58.227Z,9.43
2023-02-24T02:33:38.605Z,8.75
2023-02-24T02:38:54.244Z,9.27
2023-02-24T02:44:09.104Z,8.77
2023-02-24T02:49:22.106Z,8.15
2023-02-24T02:54:34.857Z,8.45
2023-02-24T02:59:49.450Z,8.02
2023-02-24T03:04:58.370Z,8.32
2023-02-24T03:10:17.822Z,12.75
2023-02-24T03:15:24.762Z,9.82
2023-02-24T03:20:33.036Z,8.45
2023-02-24T03:25:44.634Z,8.43
2023-02-24T03:30:58.070Z,7.93
2023-02-24T03:36:02.857Z,11.35
2023-02-24T03:41:12.066Z,10.02
2023-02-24T03:46:18.187Z,10.00
2023-02-24T03:51:24.517Z,10.77
2023-02-24T03:56:46.473Z,10.45
2023-02-24T04:01:58.206Z,10.90
2023-02-24T04:07:16.380Z,12.73
2023-02-24T04:12:29.397Z,8.82
2023-02-24T04:17:43.626Z,8.38
2023-02-24T04:22:51.679Z,7.85
2023-02-24T04:28:00.060Z,8.27
2023-02-24T04:33:05.072Z,9.38
2023-02-24T04:38:09.765Z,10.15
2023-02-24T04:43:16.566Z,9.10
2023-02-24T04:53:27.246Z,10.10
2023-02-24T04:58:33.053Z,10.20
2023-02-24T05:03:37.957Z,9.73
2023-02-24T05:08:42.755Z,9.07
2023-02-24T05:13:48.811Z,8.30
2023-02-24T05:19:13.151Z,15.23
2023-02-24T05:24:17.669Z,8.85
2023-02-24T05:29:23.481Z,9.50
2023-02-24T05:34:30.628Z,8.82
2023-02-24T05:39:35.213Z,10.20
2023-02-24T05:44:41.926Z,16.25
2023-02-24T05:49:48.058Z,9.40
2023-02-24T05:54:53.605Z,11.48
2023-02-24T05:59:59.384Z,13.30
2023-02-24T06:10:11.016Z,16.73
2023-02-24T06:15:17.737Z,19.95
2023-02-24T06:20:22.609Z,15.48
2023-02-24T06:25:29.894Z,11.75
2023-02-24T06:30:35.807Z,11.70
2023-02-24T06:35:45.042Z,9.80
2023-02-24T06:40:52.439Z,9.25
2023-02-24T06:46:13.419Z,12.57
2023-02-24T06:51:18.287Z,10.15
2023-02-24T06:56:23.446Z,21.23
2023-02-24T07:01:30.116Z,19.70
2023-02-24T07:06:38.507Z,12.50
2023-02-24T07:11:46.898Z,11.65
2023-02-24T07:16:54.799Z,12.18
2023-02-24T07:22:03.639Z,10.40
2023-02-24T07:27:10.240Z,10.60
2023-02-24T07:32:18.105Z,10.50
2023-02-24T07:37:24.424Z,10.73
2023-02-24T07:42:35.439Z,11.05
2023-02-24T07:47:44.696Z,10.60
2023-02-24T07:52:49.402Z,10.18
2023-02-24T07:57:54.869Z,10.40
2023-02-24T08:03:00.923Z,10.43
2023-02-24T08:08:06.617Z,9.93
2023-02-24T08:13:12.108Z,9.47
2023-02-24T08:18:20.157Z,9.15
2023-02-24T08:23:25.841Z,9.85
2023-02-24T08:28:30.381Z,9.35
2023-02-24T08:33:37.443Z,9.68
2023-02-24T08:38:42.399Z,9.95
2023-02-24T08:43:48.674Z,9.43
2023-02-24T08:54:02.821Z,9.82
2023-02-24T08:59:07.767Z,9.63
2023-02-24T09:04:19.210Z,11.97
2023-02-24T09:09:23.809Z,10.77
2023-02-24T09:14:30.154Z,9.75
2023-02-24T09:19:57.082Z,9.90
2023-02-24T09:25:21.900Z,10.10
2023-02-24T09:30:38.663Z,9.38
2023-02-24T09:35:46.925Z,10.57
2023-02-24T09:40:52.202Z,10.85
2023-02-24T09:46:14.557Z,9.52
2023-02-24T09:51:29.266Z,10.18
2023-02-24T09:56:42.713Z,10.95
2023-02-24T10:02:02.414Z,10.65
2023-02-24T10:07:16.593Z,9.60
2023-02-24T10:12:25.508Z,10.45
2023-02-24T10:17:40.462Z,10.30
2023-02-24T10:22:54.278Z,10.23
2023-02-24T10:28:07.951Z,11.13
2023-02-24T10:33:25.554Z,10.10
2023-02-24T10:38:34.236Z,10.50
2023-02-24T10:43:45.781Z,11.73
2023-02-24T10:49:00.715Z,11.15
2023-02-24T10:54:34.185Z,12.75
2023-02-24T11:00:20.123Z,13.90
2023-02-24T11:05:38.621Z,12.43
2023-02-24T11:10:58.840Z,12.93
2023-02-24T11:16:20.996Z,12.65
2023-02-24T11:21:28.134Z,13.32
2023-02-24T11:26:38.392Z,13.95
2023-02-24T11:32:12.163Z,14.70
2023-02-24T11:37:30.927Z,16.48
2023-02-24T11:42:45.768Z,13.82
2023-02-24T11:47:57.497Z,18.00
2023-02-24T11:53:06.863Z,14.02
2023-02-24T11:58:19.018Z,13.30
2023-02-24T12:03:32.103Z,13.55
2023-02-24T12:08:40.734Z,15.75
2023-02-24T12:13:53.210Z,15.10
2023-02-24T12:19:04.512Z,13.90
2023-02-24T12:24:13.912Z,16.45
2023-02-24T12:29:48.718Z,16.98
2023-02-24T12:35:07.060Z,15.95
2023-02-24T12:40:26.726Z,17.40
2023-02-24T12:45:44.607Z,21.13
2023-02-24T12:50:55.574Z,15.15
2023-02-24T12:56:11.810Z,19.10
2023-02-24T13:01:26.346Z,18.65
2023-02-24T13:06:41.857Z,14.93
2023-02-24T13:11:53.068Z,18.15
2023-02-24T13:17:20.172Z,15.10
2023-02-24T13:22:28.505Z,17.73
2023-02-24T13:27:36.273Z,18.45
2023-02-24T13:32:46.463Z,17.80
2023-02-24T13:37:51.690Z,16.75
2023-02-24T13:43:01.599Z,16.00
2023-02-24T13:48:33.269Z,17.05
2023-02-24T13:53:58.957Z,16.17
2023-02-24T13:59:29.100Z,18.93
2023-02-24T14:04:39.436Z,16.80
2023-02-24T14:09:47.797Z,17.13
2023-02-24T14:14:53.090Z,18.15
2023-02-24T14:20:10.142Z,17.27
2023-02-24T14:25:15.830Z,18.13
2023-02-24T14:30:27.014Z,18.38
2023-02-24T14:35:36.581Z,18.85
2023-02-24T14:40:49.081Z,19.63
2023-02-24T14:45:54.974Z,19.25
2023-02-24T14:56:08.826Z,21.48
2023-02-24T15:06:28.481Z,21.88
2023-02-24T15:11:37.196Z,21.60
2023-02-24T15:16:44.214Z,23.92
2023-02-24T15:21:50.377Z,24.65
2023-02-24T15:26:56.357Z,23.35
2023-02-24T15:32:02.079Z,25.88
2023-02-24T15:37:18.529Z,25.00
2023-02-24T15:42:28.579Z,25.35
2023-02-24T15:47:43.221Z,26.73
2023-02-24T15:52:49.570Z,24.67
2023-02-24T15:57:58.914Z,25.38
2023-02-24T16:03:03.233Z,25.05
2023-02-24T16:08:13.084Z,25.48
2023-02-24T16:13:20.845Z,26.42
2023-02-24T16:18:27.388Z,24.95
2023-02-24T16:23:38.756Z,25.33
2023-02-24T16:28:43.697Z,24.80
2023-02-24T16:33:54.856Z,26.67
2023-02-24T16:39:01.848Z,26.15
2023-02-24T16:44:06.585Z,27.40
2023-02-24T16:49:14.945Z,28.55
2023-02-24T16:54:22.189Z,27.85
2023-02-24T16:59:27.799Z,28.30
2023-02-24T17:04:32.594Z,28.40
2023-02-24T17:09:38.829Z,28.17
2023-02-24T17:19:47.514Z,27.33
2023-02-24T17:24:56.143Z,27.92
2023-02-24T17:30:00.996Z,29.25
2023-02-24T17:35:05.901Z,30.80
2023-02-24T17:40:13.891Z,32.40
2023-02-24T17:45:18.555Z,32.15
2023-02-24T17:50:23.131Z,32.55
2023-02-24T17:55:29.442Z,30.92
2023-02-24T18:00:34.307Z,29.60
2023-02-24T18:05:39.020Z,31.17
2023-02-24T18:10:45.006Z,28.55
2023-02-24T18:15:49.642Z,30.83
2023-02-24T18:20:58.744Z,27.67
2023-02-24T18:26:06.555Z,28.70
2023-02-24T18:31:15.627Z,29.67
2023-02-24T18:36:21.400Z,27.95
2023-02-24T18:41:27.698Z,26.77
2023-02-24T18:46:32.320Z,26.92
2023-02-24T18:51:37.197Z,24.73
2023-02-24T18:56:43.350Z,27.13
2023-02-24T19:01:48.974Z,27.88
2023-02-24T19:06:53.684Z,27.45
2023-02-24T19:12:00.032Z,26.93
2023-02-24T19:17:04.672Z,30.73
2023-02-24T19:22:09.141Z,27.80
2023-02-24T19:27:15.023Z,29.70
2023-02-24T19:37:23.901Z,30.02
2023-02-24T19:42:29.790Z,28.98
2023-02-24T19:52:38.898Z,33.15
2023-02-24T19:57:44.784Z,30.65
2023-02-24T20:07:53.618Z,29.10
2023-02-24T20:12:59.583Z,29.92
2023-02-24T20:23:12.235Z,30.83
2023-02-24T20:28:21.150Z,32.05
2023-02-24T20:33:26.582Z,32.03
2023-02-24T20:38:31.331Z,35.60
2023-02-24T20:43:37.330Z,33.45
2023-02-24T20:48:43.425Z,35.72
2023-02-24T20:53:57.319Z,37.50
2023-02-24T20:59:07.350Z,36.60
2023-02-24T21:04:14.110Z,38.42
2023-02-24T21:09:18.587Z,32.75
2023-02-24T21:14:24.938Z,34.58
2023-02-24T21:19:30.691Z,38.25
2023-02-24T21:24:35.209Z,40.15
2023-02-24T21:29:41.369Z,40.80
2023-02-24T21:34:46.050Z,40.58
2023-02-24T21:39:50.581Z,46.33
2023-02-24T21:45:02.529Z,57.92
2023-02-24T21:50:08.055Z,48.05
2023-02-24T21:55:12.680Z,50.15
2023-02-24T22:00:20.009Z,48.03
2023-02-24T22:05:27.030Z,49.28
2023-02-24T22:10:31.895Z,57.83
2023-02-24T22:15:40.211Z,48.30
2023-02-24T22:20:44.590Z,50.15
2023-02-24T22:25:49.223Z,50.70
2023-02-24T22:30:58.457Z,49.33
2023-02-24T22:36:03.793Z,51.35
2023-02-24T22:41:10.424Z,53.50
2023-02-24T22:46:19.187Z,51.00
2023-02-24T22:51:24.833Z,58.80
2023-02-24T22:56:30.887Z,48.63
2023-02-24T23:11:47.223Z,47.95
2023-02-24T23:16:55.711Z,48.70
2023-02-24T23:22:00.578Z,46.95
2023-02-24T23:27:06.294Z,49.65
2023-02-24T23:32:12.273Z,44.53
2023-02-24T23:37:16.934Z,44.20
2023-02-24T23:42:21.500Z,46.17
2023-02-24T23:47:27.388Z,46.08
2023-02-24T23:57:36.024Z,46.03
